createdAt,value
2019-04-05T00:00:55.728Z,96984.64
2019-04-05T00:05:01.467Z,96982.15
2019-04-05T00:09:08.447Z,96980.78
2019-04-05T00:13:14.111Z,96975.25
2019-04-05T00:17:19.810Z,96967.91
2019-04-05T00:21:25.540Z,96969.90
2019-04-05T00:25:31.265Z,96964.51
2019-04-05T00:29:36.976Z,96960.98
2019-04-05T00:33:42.690Z,96950.98
2019-04-05T00:37:48.364Z,96955.20
2019-04-05T00:41:54.115Z,96955.96
2019-04-05T00:45:59.796Z,96952.63
2019-04-05T00:50:12.307Z,96961.41
2019-04-05T00:54:17.965Z,96960.34
2019-04-05T00:58:23.719Z,96961.14
2019-04-05T01:02:29.651Z,96948.11
2019-04-05T01:06:35.858Z,96947.48
2019-04-05T01:10:43.015Z,96949.56
2019-04-05T01:14:49.127Z,96945.92
2019-04-05T01:18:54.878Z,96945.71
2019-04-05T01:23:02.404Z,96942.82
2019-04-05T01:27:08.811Z,96950.56
2019-04-05T01:31:14.544Z,96953.20
2019-04-05T01:35:20.312Z,96951.55
2019-04-05T01:39:26.077Z,96954.48
2019-04-05T01:43:31.891Z,96959.02
2019-04-05T01:47:37.891Z,96968.69
2019-04-05T01:51:44.353Z,96962.90
2019-04-05T01:55:50.021Z,96975.20
2019-04-05T01:59:55.724Z,96977.39
2019-04-05T02:04:01.618Z,96982.56
2019-04-05T02:08:07.512Z,96991.37
2019-04-05T02:12:13.358Z,96987.33
2019-04-05T02:16:19.172Z,96989.34
2019-04-05T02:20:25.373Z,96996.05
2019-04-05T02:24:31.135Z,96993.18
2019-04-05T02:28:37.290Z,96995.20
2019-04-05T02:32:43.213Z,96989.20
2019-04-05T02:36:48.970Z,96987.18
2019-04-05T02:40:58.483Z,96990.67
2019-04-05T02:45:06.820Z,96987.73
2019-04-05T02:49:14.420Z,96986.84
2019-04-05T02:53:21.712Z,96986.83
2019-04-05T02:57:28.999Z,96992.31
2019-04-05T03:01:35.797Z,96996.47
2019-04-05T03:05:42.019Z,97001.31
2019-04-05T03:09:49.459Z,97002.14
2019-04-05T03:13:59.305Z,96998.61
2019-04-05T03:18:05.107Z,96991.50
2019-04-05T03:22:14.050Z,96985.78
2019-04-05T03:26:24.169Z,96983.94
2019-04-05T03:30:30.354Z,96987.98
2019-04-05T03:34:37.360Z,96983.92
2019-04-05T03:38:43.263Z,96989.50
2019-04-05T03:42:49.275Z,96989.59
2019-04-05T03:46:57.926Z,96993.14
2019-04-05T03:51:03.781Z,96974.98
2019-04-05T03:55:09.900Z,96982.08
2019-04-05T03:59:15.569Z,96985.23
2019-04-05T04:03:21.495Z,96980.02
2019-04-05T04:07:27.329Z,96980.49
2019-04-05T04:11:33.479Z,96986.86
2019-04-05T04:15:39.549Z,96986.58
2019-04-05T04:19:46.223Z,96986.34
2019-04-05T04:23:52.415Z,96992.13
2019-04-05T04:27:58.872Z,96982.41
2019-04-05T04:32:05.213Z,96977.02
2019-04-05T04:36:13.241Z,96986.08
2019-04-05T04:40:21.213Z,96989.02
2019-04-05T04:44:27.412Z,96990.52
2019-04-05T04:48:33.739Z,96995.62
2019-04-05T04:52:39.644Z,97002.03
2019-04-05T04:56:45.735Z,97011.13
2019-04-05T05:00:51.826Z,97018.61
2019-04-05T05:04:57.806Z,97012.03
2019-04-05T05:09:06.432Z,97013.98
2019-04-05T05:13:12.268Z,97022.13
2019-04-05T05:17:18.425Z,97021.02
2019-04-05T05:21:24.343Z,97021.98
2019-04-05T05:25:30.440Z,97024.42
2019-04-05T05:29:36.609Z,97008.41
2019-04-05T05:33:42.860Z,97010.88
2019-04-05T05:37:49.383Z,97021.84
2019-04-05T05:41:55.190Z,97020.31
2019-04-05T05:46:01.250Z,97017.73
2019-04-05T05:50:09.979Z,97015.16
2019-04-05T05:54:15.682Z,97018.53
2019-04-05T05:58:21.376Z,97023.83
2019-04-05T06:02:27.142Z,97018.19
2019-04-05T06:06:32.842Z,97013.72
2019-04-05T06:10:38.545Z,97014.59
2019-04-05T06:14:44.296Z,97008.23
2019-04-05T06:18:49.979Z,97004.81
2019-04-05T06:22:55.668Z,97002.59
2019-04-05T06:27:02.404Z,96998.86
2019-04-05T06:31:08.114Z,96988.92
2019-04-05T06:35:13.872Z,96984.53
2019-04-05T06:39:20.829Z,96996.03
2019-04-05T06:43:26.674Z,97000.21
2019-04-05T06:47:32.375Z,97001.62
2019-04-05T06:51:38.072Z,97006.91
2019-04-05T06:55:43.759Z,97005.22
2019-04-05T06:59:49.435Z,97006.07
2019-04-05T07:03:55.414Z,97013.98
2019-04-05T07:08:01.174Z,97008.73
2019-04-05T07:12:06.978Z,97012.33
2019-04-05T07:16:12.710Z,97004.42
2019-04-05T07:20:18.547Z,97004.06
2019-04-05T07:24:24.234Z,97006.30
2019-04-05T07:28:29.990Z,97007.38
2019-04-05T07:32:35.829Z,97005.42
2019-04-05T07:36:41.519Z,97013.38
2019-04-05T07:40:47.283Z,97008.61
2019-04-05T07:44:52.984Z,97011.16
2019-04-05T07:48:58.720Z,97005.30
2019-04-05T07:53:05.396Z,97000.99
2019-04-05T07:57:11.081Z,97009.88
2019-04-05T08:01:16.881Z,97006.58
2019-04-05T08:05:22.653Z,97012.23
2019-04-05T08:09:28.912Z,97015.38
2019-04-05T08:13:38.658Z,97019.78
2019-04-05T08:17:44.330Z,97022.71
2019-04-05T08:21:50.009Z,97026.33
2019-04-05T08:25:55.767Z,97029.52
2019-04-05T08:30:01.507Z,97034.34
2019-04-05T08:34:07.403Z,97041.17
2019-04-05T08:38:13.056Z,97050.08
2019-04-05T08:42:18.768Z,97042.17
2019-04-05T08:46:24.580Z,97045.50
2019-04-05T08:50:30.363Z,97043.39
2019-04-05T08:54:36.868Z,97038.16
2019-04-05T08:58:42.857Z,97043.10
2019-04-05T09:02:48.822Z,97046.06
2019-04-05T09:06:55.485Z,97043.34
2019-04-05T09:11:01.182Z,97035.03
2019-04-05T09:15:08.529Z,97030.25
2019-04-05T09:19:23.364Z,97026.32
2019-04-05T09:23:21.904Z,97022.55
2019-04-05T09:27:27.603Z,97010.77
2019-04-05T09:31:33.486Z,96997.35
2019-04-05T09:35:39.191Z,96995.15
2019-04-05T09:39:44.882Z,96991.50
2019-04-05T09:43:50.584Z,96991.20
2019-04-05T09:47:56.294Z,96981.26
2019-04-05T09:52:01.998Z,96979.11
2019-04-05T09:56:07.717Z,96972.18
2019-04-05T10:05:25.830Z,96953.41
2019-04-05T10:09:31.600Z,96947.77
2019-04-05T10:13:37.370Z,96954.92
2019-04-05T10:17:43.069Z,96955.98
2019-04-05T10:21:48.757Z,96956.11
2019-04-05T10:25:54.455Z,96942.02
2019-04-05T10:30:00.151Z,96939.93
2019-04-05T10:34:06.020Z,96933.36
2019-04-05T10:38:11.734Z,96930.74
2019-04-05T10:42:34.005Z,96929.89
2019-04-05T10:46:39.698Z,96928.00
2019-04-05T10:50:45.519Z,96934.29
2019-04-05T10:54:51.248Z,96926.38
2019-04-05T10:58:57.010Z,96942.56
2019-04-05T11:03:02.836Z,96929.13
2019-04-05T11:07:08.572Z,96925.42
2019-04-05T11:11:14.279Z,96918.50
2019-04-05T11:15:20.596Z,96921.05
2019-04-05T11:19:26.370Z,96917.31
2019-04-05T11:23:32.079Z,96913.89
2019-04-05T11:27:37.939Z,96924.56
2019-04-05T11:31:55.979Z,96919.04
2019-04-05T11:35:51.511Z,96919.40
2019-04-05T11:39:58.001Z,96922.61
2019-04-05T11:44:04.409Z,96918.30
2019-04-05T11:48:10.317Z,96914.84
2019-04-05T11:52:16.186Z,96921.33
2019-04-05T11:56:21.884Z,96922.70
2019-04-05T12:00:36.350Z,96916.64
2019-04-05T12:04:42.902Z,96910.43
2019-04-05T12:08:48.787Z,96922.39
2019-04-05T12:12:54.563Z,96921.72
2019-04-05T12:17:00.263Z,96913.20
2019-04-05T12:21:06.050Z,96917.58
2019-04-05T12:25:12.061Z,96910.56
2019-04-05T12:29:17.823Z,96916.70
2019-04-05T12:33:23.687Z,96909.41
2019-04-05T12:37:29.444Z,96913.54
2019-04-05T12:41:35.120Z,96905.79
2019-04-05T12:45:44.349Z,96899.25
2019-04-05T12:49:48.255Z,96899.50
2019-04-05T12:53:56.489Z,96886.66
2019-04-05T12:58:01.344Z,96887.69
2019-04-05T13:02:07.050Z,96887.44
2019-04-05T13:06:12.769Z,96886.48
2019-04-05T13:10:18.470Z,96887.23
2019-04-05T13:14:26.094Z,96884.52
2019-04-05T13:18:31.880Z,96868.46
2019-04-05T13:34:06.312Z,96871.53
2019-04-05T13:38:12.152Z,96867.94
2019-04-05T13:42:17.843Z,96871.53
2019-04-05T13:46:26.054Z,96870.34
2019-04-05T13:50:31.048Z,96866.88
2019-04-05T13:54:38.291Z,96863.88
2019-04-05T13:58:46.362Z,96862.20
2019-04-05T14:02:51.654Z,96855.64
2019-04-05T14:06:57.357Z,96864.29
2019-04-05T14:11:03.594Z,96852.22
2019-04-05T14:15:11.242Z,96846.88
2019-04-05T14:19:19.382Z,96845.66
2019-04-05T14:23:26.200Z,96848.98
2019-04-05T14:27:34.930Z,96850.05
2019-04-05T14:31:39.304Z,96847.06
2019-04-05T14:35:45.062Z,96846.24
2019-04-05T14:39:50.769Z,96830.33
2019-04-05T14:43:56.442Z,96830.94
2019-04-05T14:48:02.323Z,96827.23
2019-04-05T14:52:08.028Z,96827.87
2019-04-05T14:56:13.717Z,96832.19
2019-04-05T15:00:19.843Z,96836.39
2019-04-05T15:04:25.525Z,96844.20
2019-04-05T15:08:31.243Z,96837.72
2019-04-05T15:12:36.970Z,96844.36
2019-04-05T15:16:42.661Z,96839.36
2019-04-05T15:20:48.336Z,96838.53
2019-04-05T15:24:54.105Z,96842.39
2019-04-05T15:28:59.821Z,96831.00
2019-04-05T15:33:05.808Z,96836.38
2019-04-05T15:37:11.809Z,96836.56
2019-04-05T15:41:17.558Z,96836.34
2019-04-05T15:45:23.422Z,96833.38
2019-04-05T15:49:30.186Z,96837.16
2019-04-05T15:53:35.887Z,96843.84
2019-04-05T15:57:41.585Z,96849.72
2019-04-05T16:01:47.263Z,96855.42
2019-04-05T16:05:53.108Z,96855.18
2019-04-05T16:09:58.889Z,96854.27
2019-04-05T16:14:04.933Z,96852.06
2019-04-05T16:18:10.707Z,96861.34
2019-04-05T16:22:16.443Z,96867.41
2019-04-05T16:26:22.144Z,96863.80
2019-04-05T16:30:27.920Z,96871.97
2019-04-05T16:34:33.602Z,96870.00
2019-04-05T16:38:39.371Z,96873.47
2019-04-05T16:42:45.128Z,96869.34
2019-04-05T16:46:50.826Z,96868.02
2019-04-05T16:50:56.527Z,96865.20
2019-04-05T16:55:03.259Z,96858.05
2019-04-05T16:59:09.020Z,96857.21
2019-04-05T17:03:14.695Z,96857.66
2019-04-05T17:07:21.769Z,96866.43
2019-04-05T17:11:27.628Z,96868.67
2019-04-05T17:15:33.436Z,96868.81
2019-04-05T17:19:40.756Z,96876.55
2019-04-05T17:23:46.471Z,96878.26
2019-04-05T17:27:52.183Z,96884.63
2019-04-05T17:37:13.882Z,96887.44
2019-04-05T17:41:19.586Z,96900.45
2019-04-05T17:45:25.334Z,96897.41
2019-04-05T17:49:31.006Z,96907.67
2019-04-05T17:53:36.992Z,96900.98
2019-04-05T17:57:42.994Z,96901.42
2019-04-05T18:01:48.753Z,96905.08
2019-04-05T18:05:54.472Z,96906.47
2019-04-05T18:10:00.262Z,96908.14
2019-04-05T18:14:06.122Z,96911.92
2019-04-05T18:18:12.784Z,96912.50
2019-04-05T18:22:18.527Z,96921.02
2019-04-05T18:26:24.237Z,96914.20
2019-04-05T18:30:30.037Z,96909.95
2019-04-05T18:34:35.798Z,96920.58
2019-04-05T18:38:41.517Z,96918.73
2019-04-05T18:42:47.291Z,96913.32
2019-04-05T18:46:52.974Z,96913.94
2019-04-05T18:50:58.875Z,96922.58
2019-04-05T18:55:07.207Z,96913.16
2019-04-05T18:59:12.922Z,96916.35
2019-04-05T19:03:18.835Z,96919.83
2019-04-05T19:07:24.554Z,96923.74
2019-04-05T19:11:30.374Z,96927.69
2019-04-05T19:15:36.085Z,96928.02
2019-04-05T19:19:41.874Z,96937.72
2019-04-05T19:23:51.024Z,96945.27
2019-04-05T19:27:55.307Z,96947.52
2019-04-05T19:48:31.454Z,96952.37
2019-04-05T19:52:37.876Z,96945.00
2019-04-05T19:56:43.581Z,96944.41
2019-04-05T20:00:49.412Z,96943.05
2019-04-05T20:04:55.198Z,96941.52
2019-04-05T20:09:00.876Z,96940.00
2019-04-05T20:13:08.497Z,96934.12
2019-04-05T20:17:14.268Z,96935.48
2019-04-05T20:21:19.997Z,96930.02
2019-04-05T20:25:25.715Z,96938.06
2019-04-05T20:29:31.397Z,96936.72
2019-04-05T20:33:37.187Z,96948.05
2019-04-05T20:37:42.922Z,96950.77
2019-04-05T20:41:48.737Z,96954.23
2019-04-05T20:45:57.090Z,96951.05
2019-04-05T20:50:02.956Z,96952.69
2019-04-05T20:54:08.658Z,96949.39
2019-04-05T20:58:14.394Z,96950.73
2019-04-05T21:02:20.177Z,96948.89
2019-04-05T21:06:25.878Z,96947.70
2019-04-05T21:10:31.589Z,96953.72
2019-04-05T21:14:37.287Z,96953.16
2019-04-05T21:18:42.991Z,96947.05
2019-04-05T21:22:48.755Z,96942.48
2019-04-05T21:26:54.446Z,96939.48
2019-04-05T21:31:00.148Z,96946.91
2019-04-05T21:35:07.668Z,96949.58
2019-04-05T21:39:13.362Z,96954.60
2019-04-05T21:43:19.059Z,96958.66
2019-04-05T21:47:24.842Z,96961.92
2019-04-05T21:51:30.584Z,96956.27
2019-04-05T21:55:36.404Z,96965.31
2019-04-05T21:59:42.079Z,96966.45
2019-04-05T22:03:47.764Z,96961.14
2019-04-05T22:07:53.480Z,96966.31
2019-04-05T22:11:59.345Z,96966.20
2019-04-05T22:16:05.068Z,96965.42
2019-04-05T22:20:11.524Z,96972.17
2019-04-05T22:24:17.194Z,96970.56
2019-04-05T22:28:22.912Z,96974.45
2019-04-05T22:32:28.611Z,96971.94
2019-04-05T22:36:34.308Z,96976.42
2019-04-05T22:40:40.005Z,96977.50
2019-04-05T22:44:45.692Z,96969.91
2019-04-05T22:48:51.383Z,96984.33
2019-04-05T22:52:57.076Z,96981.23
2019-04-05T23:01:04.483Z,96991.53
2019-04-05T23:05:10.428Z,96989.97
2019-04-05T23:09:16.127Z,96987.52
2019-04-05T23:13:21.849Z,96987.66
2019-04-05T23:17:27.610Z,96989.84
2019-04-05T23:21:33.291Z,96992.16
2019-04-05T23:25:39.020Z,96995.33
2019-04-05T23:29:44.697Z,97000.52
2019-04-05T23:33:50.396Z,96999.14
2019-04-05T23:37:56.091Z,97000.35
2019-04-05T23:42:01.962Z,97003.91
2019-04-05T23:46:07.673Z,97001.95
2019-04-05T23:50:13.678Z,97000.92
2019-04-05T23:54:19.360Z,97000.73
2019-04-05T23:58:25.074Z,97000.50
